Time;durP1;ratioP1;P1;durP2;ratioP2;P2;SDS_P1;SDS_P2;PMS_P1;PMS_P2;Temp;Humidity;BMP_temperature;BMP_pressure;BME280_temperature;BME280_humidity;BME280_pressure;Samples;Min_cycle;Max_cycle;Signal;HPM_P1;HPM_P2
2023/12/24 00:02:10;;;;;;;3.88;1.25;;;;;;;;;;5027474;28;20079;-62
2023/12/24 00:04:37;;;;;;;4.25;0.70;;;;;;;;;;5026573;28;20061;-63
2023/12/24 00:07:05;;;;;;;3.85;0.95;;;;;;;;;;5054423;28;20061;-63
2023/12/24 00:09:31;;;;;;;4.90;0.98;;;;;;;;;;5028318;28;20091;-62
2023/12/24 00:11:58;;;;;;;4.45;0.95;;;;;;;;;;5046295;28;20057;-64
2023/12/24 00:14:25;;;;;;;7.60;1.02;;;;;;;;;;5042402;28;20072;-62
2023/12/24 00:16:51;;;;;;;3.90;0.90;;;;;;;;;;5019882;28;20057;-64
2023/12/24 00:19:18;;;;;;;3.75;0.93;;;;;;;;;;5026501;28;20084;-64
2023/12/24 00:21:44;;;;;;;3.47;0.88;;;;;;;;;;5042988;28;20063;-62
2023/12/24 00:24:12;;;;;;;4.82;1.15;;;;;;;;;;5024582;28;20145;-64
2023/12/24 00:26:39;;;;;;;6.70;1.00;;;;;;;;;;5006790;28;20156;-63
2023/12/24 00:29:06;;;;;;;1.80;0.95;;;;;;;;;;5024987;28;20045;-63
2023/12/24 00:31:33;;;;;;;3.47;0.68;;;;;;;;;;5024919;28;20049;-63
2023/12/24 00:34:00;;;;;;;5.30;0.80;;;;;;;;;;5056420;28;20061;-64
2023/12/24 00:36:27;;;;;;;6.13;0.75;;;;;;;;;;5015444;28;20053;-64
2023/12/24 00:38:54;;;;;;;6.00;0.80;;;;;;;;;;5020886;28;20084;-62
2023/12/24 00:41:22;;;;;;;3.30;0.65;;;;;;;;;;5022000;28;20057;-62
2023/12/24 00:43:48;;;;;;;3.17;0.70;;;;;;;;;;5022051;28;20222;-62
2023/12/24 00:46:15;;;;;;;5.47;0.88;;;;;;;;;;5017968;28;20064;-62
2023/12/24 00:48:42;;;;;;;4.20;1.10;;;;;;;;;;5016947;28;20244;-62
2023/12/24 00:51:09;;;;;;;2.75;0.70;;;;;;;;;;5039796;28;20053;-63
2023/12/24 00:53:36;;;;;;;5.75;1.00;;;;;;;;;;5022429;28;20056;-63
2023/12/24 00:56:02;;;;;;;3.58;0.75;;;;;;;;;;5030681;28;20057;-62
2023/12/24 00:58:31;;;;;;;4.28;0.60;;;;;;;;;;5027795;28;20080;-64
2023/12/24 01:00:57;;;;;;;3.28;0.80;;;;;;;;;;5020714;28;20061;-63
2023/12/24 01:03:25;;;;;;;2.60;0.60;;;;;;;;;;5039526;28;20124;-64
2023/12/24 01:05:52;;;;;;;4.18;0.85;;;;;;;;;;5028817;28;20128;-62
2023/12/24 01:08:21;;;;;;;2.20;0.60;;;;;;;;;;5017702;28;20053;-62
2023/12/24 01:10:49;;;;;;;1.27;0.43;;;;;;;;;;5000239;28;20050;-62
2023/12/24 01:13:18;;;;;;;4.68;0.80;;;;;;;;;;5005402;28;20115;-63
2023/12/24 01:15:47;;;;;;;0.70;0.50;;;;;;;;;;4998726;28;20184;-64
2023/12/24 01:18:14;;;;;;;1.88;0.75;;;;;;;;;;4998660;28;20069;-63
2023/12/24 01:20:40;;;;;;;5.68;0.80;;;;;;;;;;4996284;28;20059;-62
2023/12/24 01:23:07;;;;;;;3.15;0.73;;;;;;;;;;5020019;28;20142;-63
2023/12/24 01:25:34;;;;;;;8.38;0.85;;;;;;;;;;5016372;28;20053;-64
2023/12/24 01:28:01;;;;;;;6.82;1.10;;;;;;;;;;5016955;28;20053;-63
2023/12/24 01:30:28;;;;;;;5.38;1.08;;;;;;;;;;4994192;28;20080;-64
2023/12/24 01:32:56;;;;;;;3.28;0.70;;;;;;;;;;5011206;28;20053;-63
2023/12/24 01:35:23;;;;;;;4.20;0.68;;;;;;;;;;4998512;28;20054;-64
2023/12/24 01:37:50;;;;;;;2.45;0.60;;;;;;;;;;5031800;28;20061;-63
2023/12/24 01:40:16;;;;;;;2.40;0.75;;;;;;;;;;5021784;28;20049;-64
2023/12/24 01:42:43;;;;;;;7.68;1.08;;;;;;;;;;4998546;28;20152;-64
2023/12/24 01:45:10;;;;;;;6.20;0.98;;;;;;;;;;5006509;28;20073;-64
2023/12/24 01:47:37;;;;;;;2.53;0.93;;;;;;;;;;4994830;28;20088;-64
2023/12/24 01:50:06;;;;;;;6.85;1.45;;;;;;;;;;5003649;28;20195;-64
2023/12/24 01:52:33;;;;;;;8.35;1.02;;;;;;;;;;5030387;28;20087;-66
2023/12/24 01:55:00;;;;;;;3.88;0.93;;;;;;;;;;5016855;28;20057;-66
2023/12/24 01:57:30;;;;;;;3.38;1.13;;;;;;;;;;4991365;28;20057;-66
2023/12/24 01:59:58;;;;;;;1.88;0.65;;;;;;;;;;5017307;28;20061;-65
2023/12/24 02:02:28;;;;;;;3.60;0.83;;;;;;;;;;5000801;28;20049;-67
2023/12/24 02:04:55;;;;;;;3.20;0.90;;;;;;;;;;5015497;28;20052;-65
2023/12/24 02:07:25;;;;;;;6.70;1.00;;;;;;;;;;5013963;28;20068;-66
2023/12/24 02:09:52;;;;;;;6.05;1.35;;;;;;;;;;5034951;28;20053;-68
2023/12/24 02:12:19;;;;;;;10.05;1.35;;;;;;;;;;5031768;28;20106;-67
2023/12/24 02:14:46;;;;;;;2.22;0.98;;;;;;;;;;5022136;28;20052;-67
2023/12/24 02:17:13;;;;;;;5.97;1.33;;;;;;;;;;4999736;28;20087;-67
2023/12/24 02:19:40;;;;;;;2.00;0.90;;;;;;;;;;5024562;28;20171;-67
2023/12/24 02:22:09;;;;;;;3.28;1.05;;;;;;;;;;5023359;28;20053;-66
2023/12/24 02:24:34;;;;;;;4.65;0.82;;;;;;;;;;5034670;28;20064;-67
2023/12/24 02:27:10;;;;;;;1.60;0.60;;;;;;;;;;5037497;28;20053;-67
2023/12/24 02:29:42;;;;;;;4.90;1.50;;;;;;;;;;5023660;28;20053;-68
2023/12/24 02:32:13;;;;;;;5.65;1.33;;;;;;;;;;5022816;28;20072;-67
2023/12/24 02:34:40;;;;;;;9.50;1.00;;;;;;;;;;5021633;28;20057;-67
2023/12/24 02:37:09;;;;;;;5.45;1.35;;;;;;;;;;5012156;28;20181;-67
2023/12/24 02:39:37;;;;;;;6.97;1.25;;;;;;;;;;5021084;28;20091;-68
2023/12/24 02:42:05;;;;;;;5.97;1.10;;;;;;;;;;5009613;28;20048;-68
2023/12/24 02:44:32;;;;;;;2.88;1.00;;;;;;;;;;5019569;28;20057;-67
2023/12/24 02:46:58;;;;;;;6.38;1.55;;;;;;;;;;5035177;28;20067;-68
2023/12/24 02:49:25;;;;;;;6.10;1.23;;;;;;;;;;5023155;28;20052;-67
2023/12/24 02:51:52;;;;;;;4.43;1.55;;;;;;;;;;5024475;28;20074;-68
2023/12/24 02:54:21;;;;;;;9.35;1.45;;;;;;;;;;5018844;28;20095;-66
2023/12/24 02:56:54;;;;;;;3.10;1.17;;;;;;;;;;4806531;22;20032;-65
2023/12/24 02:59:25;;;;;;;7.32;1.65;;;;;;;;;;4971394;28;20046;-67
2023/12/24 03:01:51;;;;;;;3.47;1.55;;;;;;;;;;4975965;28;20057;-67
2023/12/24 03:04:18;;;;;;;4.53;1.50;;;;;;;;;;4954328;28;20575;-69
2023/12/24 03:06:45;;;;;;;5.13;1.27;;;;;;;;;;4988815;28;20124;-69
2023/12/24 03:09:12;;;;;;;3.67;1.38;;;;;;;;;;4978098;28;20054;-68
2023/12/24 03:11:44;;;;;;;5.70;1.55;;;;;;;;;;4973601;28;20084;-70
2023/12/24 03:14:10;;;;;;;6.18;1.50;;;;;;;;;;4953753;28;20059;-67
2023/12/24 03:16:37;;;;;;;6.72;1.38;;;;;;;;;;4983956;28;20065;-67
2023/12/24 03:19:06;;;;;;;5.03;1.30;;;;;;;;;;4980163;28;20053;-70
2023/12/24 03:21:33;;;;;;;1.52;1.00;;;;;;;;;;4983552;28;20112;-67
2023/12/24 03:24:02;;;;;;;2.65;1.17;;;;;;;;;;4955497;28;20205;-67
2023/12/24 03:26:30;;;;;;;5.30;1.40;;;;;;;;;;4999428;28;20069;-67
2023/12/24 03:29:00;;;;;;;4.28;1.60;;;;;;;;;;4990274;28;20057;-69
2023/12/24 03:31:27;;;;;;;4.35;1.35;;;;;;;;;;4986887;28;20057;-69
2023/12/24 03:33:54;;;;;;;3.38;1.00;;;;;;;;;;5010302;28;20061;-68
2023/12/24 03:36:21;;;;;;;10.02;1.90;;;;;;;;;;5004924;28;20167;-68
2023/12/24 03:38:47;;;;;;;2.45;1.30;;;;;;;;;;4982631;28;20170;-67
2023/12/24 03:41:14;;;;;;;3.15;1.13;;;;;;;;;;4982216;28;20070;-66
2023/12/24 03:43:41;;;;;;;1.70;0.93;;;;;;;;;;4995018;28;20089;-69
2023/12/24 03:46:09;;;;;;;3.78;1.10;;;;;;;;;;4972800;28;20056;-67
2023/12/24 03:48:37;;;;;;;2.67;0.80;;;;;;;;;;4980519;28;20081;-67
2023/12/24 03:51:04;;;;;;;1.37;0.77;;;;;;;;;;5011935;28;20054;-67
2023/12/24 03:53:31;;;;;;;2.45;0.98;;;;;;;;;;4996278;28;20060;-67
2023/12/24 03:56:01;;;;;;;3.25;1.15;;;;;;;;;;4995689;28;20057;-66
2023/12/24 03:58:27;;;;;;;2.83;0.93;;;;;;;;;;4974514;28;20054;-69
2023/12/24 04:00:54;;;;;;;1.58;0.70;;;;;;;;;;4959689;28;20057;-66
2023/12/24 04:03:22;;;;;;;0.88;0.70;;;;;;;;;;4962522;28;20149;-67
2023/12/24 04:05:49;;;;;;;0.95;0.75;;;;;;;;;;4957536;28;20061;-67
2023/12/24 04:08:16;;;;;;;1.58;0.80;;;;;;;;;;4951864;28;20054;-69
2023/12/24 04:10:43;;;;;;;2.88;0.65;;;;;;;;;;4967860;28;20081;-66
2023/12/24 04:13:10;;;;;;;0.85;0.40;;;;;;;;;;4985071;28;21130;-66
2023/12/24 04:15:36;;;;;;;0.75;0.50;;;;;;;;;;4975233;28;20141;-67
2023/12/24 04:18:04;;;;;;;0.40;0.40;;;;;;;;;;4977347;28;20062;-68
2023/12/24 04:20:32;;;;;;;1.80;0.60;;;;;;;;;;4990981;28;20120;-69
2023/12/24 04:22:59;;;;;;;1.17;0.60;;;;;;;;;;4961749;28;20061;-68
2023/12/24 04:25:25;;;;;;;0.77;0.40;;;;;;;;;;4992427;28;20172;-67
2023/12/24 04:27:52;;;;;;;0.85;0.30;;;;;;;;;;4980201;28;20082;-68
2023/12/24 04:30:19;;;;;;;1.15;0.60;;;;;;;;;;4950339;28;20121;-67
2023/12/24 04:32:45;;;;;;;0.30;0.30;;;;;;;;;;4971738;28;20082;-70
2023/12/24 04:35:12;;;;;;;0.80;0.60;;;;;;;;;;4967235;28;20090;-67
2023/12/24 04:37:41;;;;;;;0.63;0.40;;;;;;;;;;4963443;28;20087;-67
2023/12/24 04:40:11;;;;;;;0.68;0.40;;;;;;;;;;4987427;28;20050;-69
2023/12/24 04:42:37;;;;;;;0.40;0.40;;;;;;;;;;4969833;28;20126;-67
2023/12/24 04:45:10;;;;;;;0.30;0.30;;;;;;;;;;4985820;28;20058;-69
2023/12/24 04:47:37;;;;;;;0.60;0.40;;;;;;;;;;4965029;28;20065;-68
2023/12/24 04:50:09;;;;;;;0.47;0.30;;;;;;;;;;4977626;28;20062;-68
2023/12/24 04:52:37;;;;;;;0.30;0.30;;;;;;;;;;4979434;28;20058;-68
2023/12/24 04:55:07;;;;;;;1.25;0.60;;;;;;;;;;4973518;28;20062;-66
2023/12/24 04:57:33;;;;;;;0.80;0.38;;;;;;;;;;4969470;28;20515;-68
2023/12/24 05:00:00;;;;;;;0.25;0.25;;;;;;;;;;4978249;28;20077;-68
2023/12/24 05:02:27;;;;;;;1.67;0.52;;;;;;;;;;5014223;28;20166;-69
2023/12/24 05:04:54;;;;;;;1.65;0.40;;;;;;;;;;4965264;28;20053;-69
2023/12/24 05:07:21;;;;;;;1.40;0.50;;;;;;;;;;5011540;28;20061;-68
2023/12/24 05:09:47;;;;;;;0.15;0.15;;;;;;;;;;5010850;28;20078;-67
2023/12/24 05:12:16;;;;;;;1.27;0.32;;;;;;;;;;4966484;28;20061;-70
2023/12/24 05:14:42;;;;;;;1.27;0.30;;;;;;;;;;4975578;28;20136;-69
2023/12/24 05:17:09;;;;;;;0.30;0.30;;;;;;;;;;5006616;28;20062;-66
2023/12/24 05:19:35;;;;;;;1.38;0.32;;;;;;;;;;4999669;28;20057;-67
2023/12/24 05:22:02;;;;;;;0.73;0.30;;;;;;;;;;5001034;28;20068;-70
2023/12/24 05:24:29;;;;;;;0.50;0.40;;;;;;;;;;4987714;28;20168;-69
2023/12/24 05:26:55;;;;;;;2.22;0.47;;;;;;;;;;5025400;28;20119;-70
2023/12/24 05:29:24;;;;;;;1.85;0.40;;;;;;;;;;4996209;28;20096;-68
2023/12/24 05:31:50;;;;;;;1.88;0.57;;;;;;;;;;4980462;28;20120;-69
2023/12/24 05:34:19;;;;;;;2.75;0.30;;;;;;;;;;4959657;28;20126;-70
2023/12/24 05:36:47;;;;;;;0.52;0.30;;;;;;;;;;4974860;28;20064;-69
2023/12/24 05:39:14;;;;;;;1.52;0.35;;;;;;;;;;4995603;28;20054;-70
2023/12/24 05:41:44;;;;;;;0.25;0.22;;;;;;;;;;4995845;28;20074;-68
2023/12/24 05:44:10;;;;;;;1.38;0.30;;;;;;;;;;4968410;28;20073;-69
2023/12/24 05:46:38;;;;;;;0.22;0.20;;;;;;;;;;4994909;28;20143;-69
2023/12/24 05:49:05;;;;;;;3.55;0.50;;;;;;;;;;4987205;28;20062;-71
2023/12/24 05:51:32;;;;;;;2.53;0.50;;;;;;;;;;5010070;28;20062;-71
2023/12/24 05:53:59;;;;;;;3.30;0.57;;;;;;;;;;4972185;28;20055;-72
2023/12/24 05:56:25;;;;;;;0.63;0.30;;;;;;;;;;4985587;28;20171;-69
2023/12/24 05:58:52;;;;;;;1.80;0.35;;;;;;;;;;5001163;28;20071;-70
2023/12/24 06:01:19;;;;;;;0.70;0.40;;;;;;;;;;5009429;28;20092;-72
2023/12/24 06:03:47;;;;;;;3.85;0.43;;;;;;;;;;4998797;28;20064;-71
2023/12/24 06:06:14;;;;;;;3.05;0.65;;;;;;;;;;4971157;28;20054;-70
2023/12/24 06:08:41;;;;;;;3.78;0.57;;;;;;;;;;4979098;28;20121;-68
2023/12/24 06:11:16;;;;;;;4.07;0.68;;;;;;;;;;4983116;28;20068;-71
2023/12/24 06:13:42;;;;;;;1.17;0.60;;;;;;;;;;4993526;28;20140;-70
2023/12/24 06:16:11;;;;;;;2.05;0.30;;;;;;;;;;4971465;28;20077;-70
2023/12/24 06:18:39;;;;;;;2.13;0.65;;;;;;;;;;5018057;28;20046;-67
2023/12/24 06:21:09;;;;;;;0.60;0.28;;;;;;;;;;4980962;28;20050;-67
2023/12/24 06:23:36;;;;;;;0.63;0.40;;;;;;;;;;4979813;28;20058;-68
2023/12/24 06:26:03;;;;;;;2.60;0.68;;;;;;;;;;4983490;28;20575;-69
2023/12/24 06:28:30;;;;;;;1.77;0.68;;;;;;;;;;4996553;28;20058;-69
2023/12/24 06:30:56;;;;;;;2.88;0.55;;;;;;;;;;5010765;28;20145;-71
2023/12/24 06:33:23;;;;;;;1.60;0.38;;;;;;;;;;5002928;28;20056;-70
2023/12/24 06:35:50;;;;;;;2.13;0.38;;;;;;;;;;4966786;28;20057;-71
2023/12/24 06:38:18;;;;;;;1.52;0.57;;;;;;;;;;4991642;28;20064;-72
2023/12/24 06:40:44;;;;;;;3.42;0.68;;;;;;;;;;4982379;28;20045;-72
2023/12/24 06:43:11;;;;;;;3.55;0.90;;;;;;;;;;4997758;28;20080;-71
2023/12/24 06:45:38;;;;;;;2.17;0.57;;;;;;;;;;4992164;28;20085;-70
2023/12/24 06:48:05;;;;;;;2.70;0.32;;;;;;;;;;4976778;28;20046;-71
2023/12/24 06:50:31;;;;;;;3.03;0.57;;;;;;;;;;4977798;28;20046;-71
2023/12/24 06:52:58;;;;;;;3.90;0.60;;;;;;;;;;5010031;28;20057;-69
2023/12/24 06:55:26;;;;;;;3.20;0.95;;;;;;;;;;4966527;28;20136;-70
2023/12/24 06:57:53;;;;;;;1.75;0.60;;;;;;;;;;4995529;28;20061;-71
2023/12/24 07:00:20;;;;;;;2.72;0.60;;;;;;;;;;4974467;28;20046;-71
2023/12/24 07:02:47;;;;;;;3.30;0.60;;;;;;;;;;4996556;28;20064;-70
2023/12/24 07:05:13;;;;;;;1.30;0.50;;;;;;;;;;4995693;28;20060;-70
2023/12/24 07:07:40;;;;;;;1.90;0.60;;;;;;;;;;4976215;28;20132;-69
2023/12/24 07:10:09;;;;;;;0.68;0.40;;;;;;;;;;5015524;28;20080;-71
2023/12/24 07:12:37;;;;;;;2.80;0.52;;;;;;;;;;5014237;28;20293;-69
2023/12/24 07:15:09;;;;;;;1.75;0.65;;;;;;;;;;4989958;28;20335;-69
2023/12/24 07:17:36;;;;;;;1.85;0.50;;;;;;;;;;4998889;28;20213;-69
2023/12/24 07:20:03;;;;;;;2.20;0.40;;;;;;;;;;4987124;28;20064;-69
2023/12/24 07:22:29;;;;;;;4.43;0.60;;;;;;;;;;5011833;28;20068;-71
2023/12/24 07:24:56;;;;;;;3.95;1.23;;;;;;;;;;4998505;28;20064;-67
2023/12/24 07:27:23;;;;;;;1.58;0.43;;;;;;;;;;4997635;28;20053;-68
2023/12/24 07:29:51;;;;;;;3.08;0.85;;;;;;;;;;4996067;28;20140;-69
2023/12/24 07:32:17;;;;;;;5.10;0.73;;;;;;;;;;5007422;28;20505;-67
2023/12/24 07:34:44;;;;;;;6.53;0.68;;;;;;;;;;4981680;28;20136;-68
2023/12/24 07:37:13;;;;;;;2.90;0.55;;;;;;;;;;4997623;28;20124;-68
2023/12/24 07:39:40;;;;;;;2.40;0.55;;;;;;;;;;4985646;28;20101;-68
2023/12/24 07:42:08;;;;;;;1.45;0.43;;;;;;;;;;4982928;28;20077;-69
2023/12/24 07:44:35;;;;;;;2.05;0.68;;;;;;;;;;4988316;28;20062;-69
2023/12/24 07:47:03;;;;;;;2.70;0.73;;;;;;;;;;4992491;28;20050;-67
2023/12/24 07:49:30;;;;;;;3.90;1.20;;;;;;;;;;4982477;28;20741;-69
2023/12/24 07:51:57;;;;;;;4.55;1.13;;;;;;;;;;4987519;28;20041;-69
2023/12/24 07:54:24;;;;;;;6.07;2.13;;;;;;;;;;4942807;28;20286;-69
2023/12/24 07:56:50;;;;;;;5.25;0.90;;;;;;;;;;4966642;28;20053;-68
2023/12/24 07:59:17;;;;;;;4.07;1.25;;;;;;;;;;4973039;28;20064;-68
2023/12/24 08:01:44;;;;;;;5.47;1.27;;;;;;;;;;5011225;28;20057;-71
2023/12/24 08:04:15;;;;;;;5.32;0.77;;;;;;;;;;4957852;28;20074;-69
2023/12/24 08:06:42;;;;;;;1.58;0.68;;;;;;;;;;4997707;28;20085;-68
2023/12/24 08:09:10;;;;;;;3.28;0.73;;;;;;;;;;4978977;28;20135;-66
2023/12/24 08:11:37;;;;;;;3.35;0.57;;;;;;;;;;4980503;28;20053;-68
2023/12/24 08:14:11;;;;;;;4.82;0.77;;;;;;;;;;4971783;28;20061;-69
2023/12/24 08:16:38;;;;;;;1.75;0.70;;;;;;;;;;4979170;28;20068;-70
2023/12/24 08:19:06;;;;;;;2.70;0.77;;;;;;;;;;4980031;28;20073;-67
2023/12/24 08:21:34;;;;;;;3.88;0.80;;;;;;;;;;4980564;28;20144;-68
2023/12/24 08:24:04;;;;;;;4.75;0.95;;;;;;;;;;4989433;28;20057;-71
2023/12/24 08:26:31;;;;;;;1.52;0.50;;;;;;;;;;4974872;28;20054;-67
2023/12/24 08:29:01;;;;;;;2.10;0.60;;;;;;;;;;5010318;28;20141;-70
2023/12/24 08:31:28;;;;;;;0.77;0.45;;;;;;;;;;4990084;28;20143;-68
2023/12/24 08:33:59;;;;;;;1.35;0.57;;;;;;;;;;4976722;28;20049;-67
2023/12/24 08:36:29;;;;;;;1.58;0.70;;;;;;;;;;4961317;28;20471;-67
2023/12/24 08:38:57;;;;;;;7.72;2.33;;;;;;;;;;4982438;28;20093;-69
2023/12/24 08:41:24;;;;;;;1.02;0.40;;;;;;;;;;4980324;28;20057;-68
2023/12/24 08:43:51;;;;;;;2.42;0.80;;;;;;;;;;4977956;28;20050;-68
2023/12/24 08:46:17;;;;;;;2.13;0.60;;;;;;;;;;4969121;28;20296;-68
2023/12/24 08:48:44;;;;;;;1.85;0.40;;;;;;;;;;4980143;28;20066;-68
2023/12/24 08:51:11;;;;;;;0.65;0.43;;;;;;;;;;5013042;28;20050;-69
2023/12/24 08:53:40;;;;;;;1.60;0.40;;;;;;;;;;4983142;28;20049;-68
2023/12/24 08:56:13;;;;;;;0.98;0.50;;;;;;;;;;4991615;28;20049;-68
2023/12/24 08:58:40;;;;;;;0.20;0.20;;;;;;;;;;5001942;28;20073;-66
2023/12/24 09:01:07;;;;;;;1.83;0.43;;;;;;;;;;4994807;28;20092;-68
2023/12/24 09:03:34;;;;;;;0.32;0.32;;;;;;;;;;4959129;28;20058;-68
2023/12/24 09:06:01;;;;;;;0.40;0.40;;;;;;;;;;4976513;28;20054;-70
2023/12/24 09:08:28;;;;;;;1.17;0.30;;;;;;;;;;4986906;28;21434;-70
2023/12/24 09:10:55;;;;;;;1.58;0.70;;;;;;;;;;4979576;28;20055;-68
2023/12/24 09:13:24;;;;;;;0.85;0.40;;;;;;;;;;4996163;28;20052;-70
2023/12/24 09:15:50;;;;;;;2.33;0.60;;;;;;;;;;4943496;28;20053;-73
2023/12/24 09:18:20;;;;;;;2.35;0.63;;;;;;;;;;4973330;28;20247;-70
2023/12/24 09:20:46;;;;;;;0.90;0.40;;;;;;;;;;4992836;28;20054;-69
2023/12/24 09:23:13;;;;;;;1.73;0.40;;;;;;;;;;4961630;28;20054;-70
2023/12/24 09:25:40;;;;;;;1.10;0.40;;;;;;;;;;4956637;28;20056;-69
2023/12/24 09:28:09;;;;;;;5.53;0.90;;;;;;;;;;4977346;28;20172;-68
2023/12/24 09:30:38;;;;;;;7.95;1.20;;;;;;;;;;4978778;28;20050;-68
2023/12/24 09:33:09;;;;;;;1.80;0.52;;;;;;;;;;4979479;28;20065;-71
2023/12/24 09:35:36;;;;;;;1.75;0.68;;;;;;;;;;4960933;28;20056;-68
2023/12/24 09:38:18;;;;;;;3.75;0.90;;;;;;;;;;4964771;28;20183;-69
2023/12/24 09:40:45;;;;;;;2.42;0.70;;;;;;;;;;4977522;28;20070;-68
2023/12/24 09:43:11;;;;;;;3.40;0.95;;;;;;;;;;4962478;28;20129;-67
2023/12/24 09:45:40;;;;;;;1.65;0.63;;;;;;;;;;4942134;28;20052;-69
2023/12/24 09:48:07;;;;;;;4.35;0.98;;;;;;;;;;4957319;28;20070;-69
2023/12/24 09:50:41;;;;;;;2.92;0.93;;;;;;;;;;4977722;28;20062;-69
2023/12/24 09:53:10;;;;;;;4.07;0.77;;;;;;;;;;4961420;28;20061;-67
2023/12/24 09:55:38;;;;;;;11.27;1.20;;;;;;;;;;4919406;28;20066;-67
2023/12/24 09:58:07;;;;;;;9.02;1.27;;;;;;;;;;4985746;28;20145;-68
2023/12/24 10:00:34;;;;;;;4.50;1.05;;;;;;;;;;4961121;28;20062;-67
2023/12/24 10:03:02;;;;;;;7.28;2.15;;;;;;;;;;4992541;28;20082;-67
2023/12/24 10:05:29;;;;;;;7.53;1.52;;;;;;;;;;4973979;28;20177;-68
2023/12/24 10:07:56;;;;;;;7.05;1.95;;;;;;;;;;4961600;28;20061;-66
2023/12/24 10:10:30;;;;;;;16.23;1.95;;;;;;;;;;4966256;28;20053;-69
2023/12/24 10:13:04;;;;;;;13.98;1.65;;;;;;;;;;4985192;28;20061;-70
2023/12/24 10:15:32;;;;;;;9.82;1.67;;;;;;;;;;4943490;28;20208;-69
2023/12/24 10:18:18;;;;;;;12.50;2.08;;;;;;;;;;4968514;28;20097;-69
2023/12/24 10:20:45;;;;;;;7.68;1.50;;;;;;;;;;4961721;28;20054;-69
2023/12/24 10:23:11;;;;;;;18.38;2.47;;;;;;;;;;4961937;28;20050;-70
2023/12/24 10:25:43;;;;;;;14.73;2.25;;;;;;;;;;4942322;28;20054;-69
2023/12/24 10:28:10;;;;;;;13.63;1.75;;;;;;;;;;4971603;28;20046;-69
2023/12/24 10:30:37;;;;;;;5.40;1.15;;;;;;;;;;4966779;28;20049;-70
2023/12/24 10:33:11;;;;;;;20.27;2.90;;;;;;;;;;4959847;28;20050;-70
2023/12/24 10:35:39;;;;;;;10.00;1.50;;;;;;;;;;4914567;28;20062;-70
2023/12/24 10:38:15;;;;;;;21.05;1.50;;;;;;;;;;4956736;28;20061;-70
2023/12/24 10:40:43;;;;;;;10.00;1.88;;;;;;;;;;4961072;28;20058;-69
2023/12/24 10:43:10;;;;;;;6.70;1.67;;;;;;;;;;4977638;28;20138;-71
2023/12/24 10:45:38;;;;;;;14.02;2.45;;;;;;;;;;4932437;28;20065;-70
2023/12/24 10:48:08;;;;;;;12.57;2.83;;;;;;;;;;4956745;28;20122;-65
2023/12/24 10:50:35;;;;;;;22.67;2.47;;;;;;;;;;4991335;28;20058;-64
2023/12/24 10:53:04;;;;;;;13.65;2.13;;;;;;;;;;4959242;28;20050;-64
2023/12/24 10:55:31;;;;;;;;;;;;;;;;;;4938826;28;20057;-65
2023/12/24 10:58:05;;;;;;;12.30;2.20;;;;;;;;;;4975234;28;19925;-64
2023/12/24 11:00:32;;;;;;;8.98;1.90;;;;;;;;;;4960060;28;20042;-64
2023/12/24 11:02:59;;;;;;;11.20;1.70;;;;;;;;;;4960652;28;20076;-65
2023/12/24 11:05:53;;;;;;;4.60;1.38;;;;;;;;;;4964753;28;20061;-64
2023/12/24 11:08:31;;;;;;;9.18;1.50;;;;;;;;;;4958782;28;20074;-66
2023/12/24 11:11:03;;;;;;;12.40;2.47;;;;;;;;;;4989683;28;20065;-66
2023/12/24 11:13:50;;;;;;;5.88;1.23;;;;;;;;;;4975164;28;20057;-64
2023/12/24 11:16:41;;;;;;;6.18;1.55;;;;;;;;;;4969956;28;20702;-66
2023/12/24 11:19:22;;;;;;;7.68;1.42;;;;;;;;;;4989070;28;20334;-65
2023/12/24 11:22:10;;;;;;;6.68;1.27;;;;;;;;;;4969031;28;20054;-64
2023/12/24 11:24:42;;;;;;;9.45;1.10;;;;;;;;;;4980149;28;20050;-63
2023/12/24 11:27:10;;;;;;;2.97;1.00;;;;;;;;;;4973640;28;20527;-64
2023/12/24 11:29:44;;;;;;;5.55;1.42;;;;;;;;;;4961833;28;20085;-65
2023/12/24 11:32:35;;;;;;;5.68;1.33;;;;;;;;;;4953683;28;20061;-66
2023/12/24 11:35:02;;;;;;;2.20;0.68;;;;;;;;;;4916637;28;20055;-65
2023/12/24 11:37:30;;;;;;;4.80;1.00;;;;;;;;;;4946371;28;20061;-65
2023/12/24 11:40:15;;;;;;;6.45;0.90;;;;;;;;;;4981475;28;20050;-65
2023/12/24 11:42:44;;;;;;;5.63;1.05;;;;;;;;;;4964460;28;20096;-65
2023/12/24 11:45:23;;;;;;;4.15;1.00;;;;;;;;;;4952414;28;20066;-64
2023/12/24 11:47:50;;;;;;;6.85;1.10;;;;;;;;;;4974241;28;20393;-65
2023/12/24 11:50:18;;;;;;;5.13;1.23;;;;;;;;;;4953756;28;20061;-64
2023/12/24 11:52:47;;;;;;;5.20;1.60;;;;;;;;;;4960709;28;20058;-64
2023/12/24 11:55:26;;;;;;;;;;;;;;;;;;4958183;28;20043;-65
2023/12/24 11:57:56;;;;;;;4.53;1.30;;;;;;;;;;4981689;28;19929;-64
2023/12/24 12:00:27;;;;;;;3.63;1.20;;;;;;;;;;4984585;28;20050;-65
2023/12/24 12:02:55;;;;;;;6.20;1.52;;;;;;;;;;4980561;28;20126;-65
2023/12/24 12:05:23;;;;;;;6.10;1.48;;;;;;;;;;4940476;28;20053;-65
2023/12/24 12:07:51;;;;;;;6.13;1.50;;;;;;;;;;4982038;28;20210;-68
2023/12/24 12:10:19;;;;;;;3.08;1.15;;;;;;;;;;4991933;28;20057;-64
2023/12/24 12:12:48;;;;;;;4.78;1.65;;;;;;;;;;4997247;28;20068;-63
2023/12/24 12:15:16;;;;;;;9.85;1.92;;;;;;;;;;4965810;28;20059;-64
2023/12/24 12:17:43;;;;;;;5.32;1.80;;;;;;;;;;4989123;28;20078;-65
2023/12/24 12:20:11;;;;;;;4.38;1.58;;;;;;;;;;4977439;28;20054;-66
2023/12/24 12:22:40;;;;;;;3.30;1.27;;;;;;;;;;4966067;28;20051;-64
2023/12/24 12:25:11;;;;;;;4.20;1.25;;;;;;;;;;4947590;28;20061;-65
2023/12/24 12:27:39;;;;;;;5.68;1.63;;;;;;;;;;4972428;28;20310;-64
2023/12/24 12:30:11;;;;;;;3.80;1.15;;;;;;;;;;4976652;28;20121;-65
2023/12/24 12:32:38;;;;;;;4.80;1.40;;;;;;;;;;4999391;28;20058;-66
2023/12/24 12:35:13;;;;;;;7.25;1.45;;;;;;;;;;4947611;28;20100;-65
2023/12/24 12:37:42;;;;;;;5.47;1.65;;;;;;;;;;4986993;28;20057;-66
2023/12/24 12:40:12;;;;;;;4.63;1.65;;;;;;;;;;4965974;28;20054;-66
2023/12/24 12:42:43;;;;;;;4.90;1.67;;;;;;;;;;4968618;28;20058;-66
2023/12/24 12:45:12;;;;;;;5.97;1.40;;;;;;;;;;4984046;28;20138;-65
2023/12/24 12:47:38;;;;;;;;;;;;;;;;;;4958471;28;20054;-67
2023/12/24 12:50:07;;;;;;;7.88;1.48;;;;;;;;;;4977308;28;19932;-66
2023/12/24 12:52:34;;;;;;;5.95;1.33;;;;;;;;;;4966661;28;20050;-65
2023/12/24 12:55:03;;;;;;;3.25;1.02;;;;;;;;;;4971989;28;20066;-65
2023/12/24 12:57:33;;;;;;;3.85;1.15;;;;;;;;;;4959860;28;20054;-69
2023/12/24 13:00:09;;;;;;;5.20;1.20;;;;;;;;;;5005691;28;20058;-67
2023/12/24 13:02:38;;;;;;;6.50;1.90;;;;;;;;;;4984170;28;20054;-65
2023/12/24 13:05:24;;;;;;;3.83;1.10;;;;;;;;;;4971221;28;20054;-65
2023/12/24 13:07:52;;;;;;;4.20;0.98;;;;;;;;;;4969060;28;20085;-65
2023/12/24 13:10:27;;;;;;;4.50;1.10;;;;;;;;;;4995152;28;20133;-66
2023/12/24 13:13:08;;;;;;;7.85;1.60;;;;;;;;;;5008498;28;20054;-64
2023/12/24 13:15:35;;;;;;;4.57;1.05;;;;;;;;;;4948661;28;20111;-65
2023/12/24 13:18:26;;;;;;;4.88;1.00;;;;;;;;;;4992462;28;20050;-65
2023/12/24 13:20:54;;;;;;;7.15;1.15;;;;;;;;;;5001149;28;20057;-65
2023/12/24 13:23:23;;;;;;;5.80;1.15;;;;;;;;;;4984751;28;20080;-64
2023/12/24 13:25:54;;;;;;;5.82;1.00;;;;;;;;;;4952300;28;20225;-64
2023/12/24 13:28:21;;;;;;;2.72;0.82;;;;;;;;;;4976802;28;20352;-66
2023/12/24 13:30:49;;;;;;;6.47;1.30;;;;;;;;;;5012140;28;20081;-65
2023/12/24 13:33:20;;;;;;;7.25;1.13;;;;;;;;;;5005173;28;20140;-64
2023/12/24 13:35:47;;;;;;;9.25;1.40;;;;;;;;;;5004969;28;20052;-65
2023/12/24 13:38:17;;;;;;;6.90;1.55;;;;;;;;;;5011366;28;20054;-67
2023/12/24 13:40:45;;;;;;;6.60;1.35;;;;;;;;;;5002073;28;20112;-65
2023/12/24 13:43:13;;;;;;;9.23;2.00;;;;;;;;;;4980752;28;20056;-64
2023/12/24 13:45:41;;;;;;;6.00;1.67;;;;;;;;;;4978683;28;20061;-66
2023/12/24 13:48:13;;;;;;;8.73;2.28;;;;;;;;;;4984448;28;20293;-67
2023/12/24 13:50:42;;;;;;;7.80;1.77;;;;;;;;;;4999955;28;20225;-65
2023/12/24 13:53:09;;;;;;;8.77;1.70;;;;;;;;;;4987405;28;20045;-66
2023/12/24 13:55:40;;;;;;;12.38;1.83;;;;;;;;;;4955799;28;20242;-66
2023/12/24 13:58:15;;;;;;;6.28;1.15;;;;;;;;;;4888397;29;20143;-68
2023/12/24 14:00:42;;;;;;;13.02;2.75;;;;;;;;;;4904606;29;20185;-65
2023/12/24 14:03:15;;;;;;;13.85;2.08;;;;;;;;;;4902258;29;20091;-66
2023/12/24 14:05:43;;;;;;;9.52;2.10;;;;;;;;;;4934839;28;20088;-65
2023/12/24 14:08:12;;;;;;;;;;;;;;;;;;4990950;28;20046;-66
2023/12/24 14:10:39;;;;;;;13.68;1.85;;;;;;;;;;4976236;28;19934;-65
2023/12/24 14:13:07;;;;;;;7.50;1.70;;;;;;;;;;4960101;28;20054;-65
2023/12/24 14:15:38;;;;;;;9.30;2.20;;;;;;;;;;4937028;28;20059;-66
2023/12/24 14:18:07;;;;;;;7.45;2.10;;;;;;;;;;4956371;28;20054;-66
2023/12/24 14:20:43;;;;;;;6.18;1.38;;;;;;;;;;4992313;28;20575;-65
2023/12/24 14:23:26;;;;;;;5.70;1.50;;;;;;;;;;4973955;28;20053;-67
2023/12/24 14:25:55;;;;;;;9.48;1.67;;;;;;;;;;4984846;28;20122;-68
2023/12/24 14:28:22;;;;;;;10.60;1.73;;;;;;;;;;4975686;28;20069;-67
2023/12/24 14:30:50;;;;;;;4.55;1.88;;;;;;;;;;4981105;28;20046;-67
2023/12/24 14:33:19;;;;;;;8.70;1.55;;;;;;;;;;5014835;28;20124;-67
2023/12/24 14:35:47;;;;;;;6.13;1.33;;;;;;;;;;4990939;28;20053;-66
2023/12/24 14:38:16;;;;;;;12.10;2.85;;;;;;;;;;4995068;28;20058;-66
2023/12/24 14:40:45;;;;;;;17.45;2.00;;;;;;;;;;4983948;28;20053;-67
2023/12/24 14:43:14;;;;;;;9.00;1.70;;;;;;;;;;4980539;28;20053;-66
2023/12/24 14:45:43;;;;;;;7.45;2.00;;;;;;;;;;4978393;28;20077;-66
2023/12/24 14:48:12;;;;;;;;;;;;;;;;;;4955072;28;20046;-66
2023/12/24 14:50:39;;;;;;;10.18;1.67;;;;;;;;;;4981812;28;19922;-66
2023/12/24 14:53:08;;;;;;;3.95;1.38;;;;;;;;;;4980158;28;20060;-67